Ben Arnold, Texas
Current Conditions -  °F | °C
As of 4:15 PM on Sunday 25 Jan 2015 (Local Time) from KT35 Reporting Station
Clear Clear  
Wind Chill: 69°   Ceiling: Unl
Heat Index: 69°   Visibility: 10mi
Dew Point: 30°   Wind: 17mph
Humidity: 23%   Direction: 330°NNW
Pressure: 30.09"   Gusts: 22mph
Location:  30.9882°N, 97.103°W
Report Text: KT35 252215Z AUTO 33015G19KT 10SM CLR 21/M01 A3009 RMK AO2 T02061011
Loading
Personal Weather Stations






























Interactive Weather Map New forecast layout! Learn more

10-Day Weather Forecast

Advertisements
Track Severe Weather on mobile